Time;durP1;ratioP1;P1;durP2;ratioP2;P2;SDS_P1;SDS_P2;PMS_P1;PMS_P2;Temp;Humidity;BMP_temperature;BMP_pressure;BME280_temperature;BME280_humidity;BME280_pressure;Samples;Min_cycle;Max_cycle;Signal;HPM_P1;HPM_P2
2022/09/22 00:01:38;;;;;;;14.60;10.60;;;8.90;99.90;;;;;;5060475;28;20044;-78
2022/09/22 00:04:07;;;;;;;13.07;10.48;;;8.90;99.90;;;;;;5060027;28;20064;-78
2022/09/22 00:06:39;;;;;;;13.68;11.50;;;8.80;99.90;;;;;;5047832;28;20083;-77
2022/09/22 00:09:07;;;;;;;15.77;10.10;;;8.80;99.90;;;;;;5050526;28;20071;-79
2022/09/22 00:11:39;;;;;;;12.95;10.68;;;8.80;99.90;;;;;;5054444;28;20049;-78
2022/09/22 00:14:12;;;;;;;13.43;10.10;;;8.80;99.90;;;;;;5064199;28;20381;-78
2022/09/22 00:16:44;;;;;;;13.80;10.00;;;8.70;99.90;;;;;;5046496;28;20147;-78
2022/09/22 00:19:19;;;;;;;13.13;9.63;;;8.70;99.90;;;;;;5059598;28;20053;-78
2022/09/22 00:21:46;;;;;;;11.75;9.00;;;8.70;99.90;;;;;;5056000;28;20056;-78
2022/09/22 00:24:12;;;;;;;11.27;9.40;;;8.60;99.90;;;;;;5053846;28;20045;-78
2022/09/22 00:26:38;;;;;;;10.63;9.27;;;8.60;99.90;;;;;;5053923;28;20303;-78
2022/09/22 00:29:08;;;;;;;11.82;9.73;;;8.60;99.90;;;;;;5059331;28;20040;-78
2022/09/22 00:31:35;;;;;;;13.73;10.68;;;8.60;99.90;;;;;;5050666;28;20507;-78
2022/09/22 00:34:01;;;;;;;;;;;8.50;99.90;;;;;;5070932;28;20123;-78
2022/09/22 00:36:27;;;;;;;12.52;9.95;;;8.50;99.90;;;;;;5059919;28;20481;-78
2022/09/22 00:38:55;;;;;;;11.32;9.45;;;8.50;99.90;;;;;;5053594;28;20109;-78
2022/09/22 00:41:30;;;;;;;13.80;9.88;;;8.50;99.90;;;;;;5056673;28;20062;-78
2022/09/22 00:44:30;;;;;;;12.30;9.60;;;8.50;99.90;;;;;;5053807;28;21386;-78
2022/09/22 00:47:05;;;;;;;14.23;9.13;;;8.60;99.90;;;;;;5059255;28;20036;-78
2022/09/22 00:49:51;;;;;;;13.10;8.73;;;8.50;99.90;;;;;;5065884;28;20120;-78
2022/09/22 00:52:49;;;;;;;12.30;8.77;;;8.50;99.90;;;;;;5053712;28;20045;-77
2022/09/22 00:55:24;;;;;;;10.85;8.93;;;8.50;99.90;;;;;;5055412;28;20075;-77
2022/09/22 00:57:51;;;;;;;12.45;8.75;;;8.50;99.90;;;;;;5054407;28;20143;-78
2022/09/22 01:00:17;;;;;;;14.27;9.15;;;8.50;99.90;;;;;;5051349;28;20074;-77
2022/09/22 01:02:52;;;;;;;10.50;8.65;;;8.50;99.90;;;;;;5048658;28;20052;-78
2022/09/22 01:05:19;;;;;;;9.32;8.10;;;8.50;99.90;;;;;;5050317;28;20069;-77
2022/09/22 01:07:46;;;;;;;12.73;8.60;;;8.40;99.90;;;;;;5058768;28;20045;-76
2022/09/22 01:10:12;;;;;;;;;;;8.40;99.90;;;;;;5055833;28;20530;-77
2022/09/22 01:12:43;;;;;;;9.23;7.70;;;8.40;99.90;;;;;;5052520;28;19917;-77
2022/09/22 01:15:19;;;;;;;12.07;9.30;;;8.40;99.90;;;;;;5050282;28;20041;-78
2022/09/22 01:18:11;;;;;;;10.73;9.07;;;8.40;99.90;;;;;;5047623;28;20098;-77
2022/09/22 01:20:49;;;;;;;11.15;8.52;;;8.40;99.90;;;;;;5046216;28;20155;-77
2022/09/22 01:23:51;;;;;;;11.90;8.75;;;8.40;99.90;;;;;;5058767;28;20491;-78
2022/09/22 01:26:41;;;;;;;9.98;8.30;;;8.30;99.90;;;;;;5053177;28;20499;-77
2022/09/22 01:29:20;;;;;;;13.02;9.93;;;8.30;99.90;;;;;;5057199;28;20036;-77
2022/09/22 01:32:07;;;;;;;10.23;8.70;;;8.30;99.90;;;;;;5055157;28;20048;-77
2022/09/22 01:34:49;;;;;;;12.95;8.77;;;8.30;99.90;;;;;;5050331;28;20049;-77
2022/09/22 01:37:35;;;;;;;12.23;9.60;;;8.30;99.90;;;;;;5074710;28;20249;-77
2022/09/22 01:40:14;;;;;;;11.45;9.05;;;8.30;99.90;;;;;;5058643;28;20434;-78
2022/09/22 01:42:45;;;;;;;12.88;9.13;;;8.20;99.90;;;;;;5043025;28;20056;-77
2022/09/22 01:45:19;;;;;;;13.35;8.93;;;8.20;99.90;;;;;;5059764;28;20170;-77
2022/09/22 01:47:52;;;;;;;12.32;9.30;;;8.20;99.90;;;;;;5056408;28;20083;-77
2022/09/22 01:50:50;;;;;;;11.20;8.90;;;8.20;99.90;;;;;;5048044;28;20036;-77
2022/09/22 01:53:19;;;;;;;10.20;8.07;;;8.20;99.90;;;;;;5061905;28;20072;-77
2022/09/22 01:55:50;;;;;;;10.32;8.30;;;8.20;99.90;;;;;;5057810;28;20056;-77
2022/09/22 01:58:31;;;;;;;9.55;7.90;;;8.20;99.90;;;;;;5057371;28;20052;-77
2022/09/22 02:01:12;;;;;;;10.30;7.60;;;8.20;99.90;;;;;;5056121;28;20049;-77
2022/09/22 02:04:13;;;;;;;12.10;7.85;;;8.20;99.90;;;;;;5051142;28;20044;-77
2022/09/22 02:06:51;;;;;;;10.07;7.68;;;8.10;99.90;;;;;;5059539;28;20044;-77
2022/09/22 02:09:21;;;;;;;10.35;7.75;;;8.10;99.90;;;;;;5051107;28;20499;-77
2022/09/22 02:11:47;;;;;;;11.82;7.03;;;8.10;99.90;;;;;;5056335;28;20169;-78
2022/09/22 02:14:13;;;;;;;10.50;7.22;;;8.10;99.90;;;;;;5060283;28;20052;-76
2022/09/22 02:16:39;;;;;;;12.45;7.53;;;8.10;99.90;;;;;;5060359;28;20439;-77
2022/09/22 02:19:19;;;;;;;11.90;7.45;;;8.00;99.90;;;;;;5062563;28;20048;-78
2022/09/22 02:21:47;;;;;;;8.23;6.43;;;8.00;99.90;;;;;;5046305;28;20121;-77
2022/09/22 02:24:33;;;;;;;9.55;7.28;;;8.00;99.90;;;;;;5065477;28;20369;-77
2022/09/22 02:27:22;;;;;;;8.75;6.60;;;8.00;99.90;;;;;;5053062;28;20044;-77
2022/09/22 02:29:59;;;;;;;10.15;6.97;;;8.00;99.90;;;;;;5054048;28;20083;-77
2022/09/22 02:32:26;;;;;;;8.38;6.80;;;7.90;99.90;;;;;;5053392;28;20037;-77
2022/09/22 02:34:54;;;;;;;9.65;6.78;;;7.90;99.90;;;;;;5052777;28;20056;-77
2022/09/22 02:37:45;;;;;;;9.60;6.90;;;7.90;99.90;;;;;;5056185;28;20052;-77
2022/09/22 02:40:25;;;;;;;8.95;6.38;;;7.90;99.90;;;;;;5053230;28;20076;-78
2022/09/22 02:43:11;;;;;;;8.02;6.20;;;7.90;99.90;;;;;;5053675;28;20090;-77
2022/09/22 02:45:51;;;;;;;9.02;6.43;;;7.90;99.90;;;;;;5076910;28;20111;-77
2022/09/22 02:48:37;;;;;;;8.15;5.43;;;7.90;99.90;;;;;;5063818;28;20056;-78
2022/09/22 02:51:04;;;;;;;9.00;5.60;;;7.80;99.90;;;;;;5059737;28;20154;-78
2022/09/22 02:53:33;;;;;;;6.95;6.00;;;7.80;99.90;;;;;;5063063;28;20074;-78
2022/09/22 02:55:59;;;;;;;6.88;5.90;;;7.80;99.90;;;;;;5059461;28;20130;-77
2022/09/22 02:58:27;;;;;;;8.20;5.72;;;7.70;99.90;;;;;;5063165;28;20487;-77
2022/09/22 03:00:52;;;;;;;7.10;5.10;;;7.70;99.90;;;;;;5054024;28;20036;-78
2022/09/22 03:03:18;;;;;;;7.65;5.70;;;7.70;99.90;;;;;;5053554;28;20040;-76
2022/09/22 03:05:43;;;;;;;7.07;5.45;;;7.70;99.90;;;;;;5061444;28;20045;-77
2022/09/22 03:08:09;;;;;;;6.30;5.03;;;7.60;99.90;;;;;;5060038;28;20056;-77
2022/09/22 03:10:35;;;;;;;10.13;4.95;;;7.60;99.90;;;;;;5053499;28;20036;-77
2022/09/22 03:13:00;;;;;;;6.38;4.97;;;7.50;99.90;;;;;;5058212;28;20037;-78
2022/09/22 03:15:26;;;;;;;8.02;5.13;;;7.50;99.90;;;;;;5054068;28;20041;-78
2022/09/22 03:17:52;;;;;;;6.72;4.88;;;7.60;99.90;;;;;;5056346;28;20373;-78
2022/09/22 03:20:17;;;;;;;5.75;5.13;;;7.50;99.90;;;;;;5062122;28;20047;-78
2022/09/22 03:22:43;;;;;;;6.30;4.65;;;7.60;99.90;;;;;;5064891;28;20113;-78
2022/09/22 03:25:10;;;;;;;7.05;5.40;;;7.60;99.90;;;;;;5047634;28;20057;-78
2022/09/22 03:27:36;;;;;;;8.25;5.47;;;7.60;99.90;;;;;;5055573;28;20059;-78
2022/09/22 03:30:04;;;;;;;6.77;4.97;;;7.50;99.90;;;;;;5070383;28;20044;-77
2022/09/22 03:32:30;;;;;;;7.10;4.95;;;7.50;99.90;;;;;;5066881;28;20103;-77
2022/09/22 03:34:56;;;;;;;8.80;5.10;;;7.40;99.90;;;;;;5057395;28;20055;-77
2022/09/22 03:37:21;;;;;;;7.50;4.95;;;7.40;99.90;;;;;;5057873;28;20033;-79
2022/09/22 03:39:47;;;;;;;8.15;5.10;;;7.50;99.90;;;;;;5053450;28;20078;-78
2022/09/22 03:42:13;;;;;;;6.05;4.80;;;7.40;99.90;;;;;;5054380;28;20048;-78
2022/09/22 03:44:38;;;;;;;9.73;5.63;;;7.40;99.90;;;;;;5051126;28;20064;-78
2022/09/22 03:47:04;;;;;;;6.40;4.90;;;7.40;99.90;;;;;;5057052;28;20060;-79
2022/09/22 03:49:30;;;;;;;6.50;4.90;;;7.40;99.90;;;;;;5059104;28;20044;-78
2022/09/22 03:51:56;;;;;;;7.45;4.88;;;7.30;99.90;;;;;;5052920;28;20049;-79
2022/09/22 03:54:22;;;;;;;6.55;4.57;;;7.30;99.90;;;;;;5049468;28;20045;-79
2022/09/22 03:56:48;;;;;;;7.80;5.13;;;7.20;99.90;;;;;;5057397;28;20444;-78
2022/09/22 03:59:14;;;;;;;7.47;4.80;;;7.20;99.90;;;;;;5056702;28;20136;-77
2022/09/22 04:01:40;;;;;;;5.93;4.80;;;7.20;99.90;;;;;;5054715;28;20045;-78
2022/09/22 04:04:06;;;;;;;8.27;4.93;;;7.20;99.90;;;;;;5054729;28;20451;-77
2022/09/22 04:06:32;;;;;;;7.50;4.30;;;7.30;99.90;;;;;;5064252;28;20048;-78
2022/09/22 04:09:00;;;;;;;6.13;4.50;;;7.20;99.90;;;;;;5055143;28;20446;-78
2022/09/22 04:11:26;;;;;;;6.20;4.32;;;7.30;99.90;;;;;;5058133;28;20052;-78
2022/09/22 04:13:52;;;;;;;6.45;4.20;;;7.20;99.90;;;;;;5057690;28;20037;-79
2022/09/22 04:16:18;;;;;;;4.90;3.90;;;7.20;99.90;;;;;;5059147;28;20086;-78
2022/09/22 04:18:44;;;;;;;6.10;4.18;;;7.20;99.90;;;;;;5063947;28;20072;-78
2022/09/22 04:21:10;;;;;;;8.13;4.40;;;7.10;99.90;;;;;;5048575;28;20049;-78
2022/09/22 04:23:36;;;;;;;8.40;4.40;;;7.10;99.90;;;;;;5070345;28;20168;-78
2022/09/22 04:26:02;;;;;;;6.38;4.18;;;7.10;99.90;;;;;;5053099;28;20116;-78
2022/09/22 04:28:28;;;;;;;8.38;4.82;;;7.10;99.90;;;;;;5053458;28;20046;-78
2022/09/22 04:30:54;;;;;;;5.03;4.13;;;7.00;99.90;;;;;;5052271;28;20497;-77
2022/09/22 04:33:20;;;;;;;5.70;4.50;;;7.00;99.90;;;;;;5061872;28;20399;-78
2022/09/22 04:35:49;;;;;;;7.38;4.18;;;7.00;99.90;;;;;;5052388;28;20538;-78
2022/09/22 04:38:16;;;;;;;5.60;4.35;;;7.00;99.90;;;;;;5064468;28;20582;-79
2022/09/22 04:40:41;;;;;;;6.05;4.50;;;7.00;99.90;;;;;;5079141;28;20127;-77
2022/09/22 04:43:07;;;;;;;5.65;4.32;;;7.10;99.90;;;;;;5049242;28;20049;-78
2022/09/22 04:45:33;;;;;;;6.10;4.38;;;7.10;99.90;;;;;;5055439;28;20045;-78
2022/09/22 04:47:58;;;;;;;6.13;4.53;;;7.10;99.90;;;;;;5052241;28;20037;-79
2022/09/22 04:50:24;;;;;;;8.70;4.72;;;7.10;99.90;;;;;;5058462;28;20045;-78
2022/09/22 04:52:52;;;;;;;5.78;4.30;;;7.10;99.90;;;;;;5062321;28;20486;-78
2022/09/22 04:55:19;;;;;;;5.97;4.70;;;7.10;99.90;;;;;;5063186;28;20041;-77
2022/09/22 04:57:50;;;;;;;7.25;5.32;;;7.10;99.90;;;;;;5061120;28;20049;-78
2022/09/22 05:00:17;;;;;;;6.97;5.43;;;7.10;99.90;;;;;;5060597;28;20127;-77
2022/09/22 05:02:43;;;;;;;9.35;6.10;;;7.10;99.90;;;;;;5059886;28;20044;-75
2022/09/22 05:05:09;;;;;;;6.18;5.40;;;7.10;99.90;;;;;;5060473;28;20039;-74
2022/09/22 05:07:34;;;;;;;7.18;5.13;;;7.10;99.90;;;;;;5057517;28;20036;-74
2022/09/22 05:10:04;;;;;;;9.38;6.00;;;7.10;99.90;;;;;;5058153;28;20119;-74
2022/09/22 05:12:30;;;;;;;10.27;5.47;;;7.00;99.90;;;;;;5059358;28;20127;-73
2022/09/22 05:14:58;;;;;;;6.30;5.68;;;7.10;99.90;;;;;;5063519;28;20148;-74
2022/09/22 05:17:23;;;;;;;9.30;5.93;;;7.00;99.90;;;;;;5052817;28;20426;-74
2022/09/22 05:19:49;;;;;;;7.63;5.97;;;7.10;99.90;;;;;;5052652;28;20079;-73
2022/09/22 05:22:15;;;;;;;6.90;5.60;;;7.00;99.90;;;;;;5063960;28;20355;-76
2022/09/22 05:24:41;;;;;;;6.25;5.13;;;7.00;99.90;;;;;;5062370;28;20045;-76
2022/09/22 05:27:07;;;;;;;7.95;5.30;;;7.00;99.90;;;;;;5063393;28;20111;-77
2022/09/22 05:29:34;;;;;;;7.17;5.63;;;7.00;99.90;;;;;;5056990;28;20049;-76
2022/09/22 05:32:00;;;;;;;9.18;5.78;;;7.00;99.90;;;;;;5055151;28;20306;-76
2022/09/22 05:34:27;;;;;;;7.07;5.60;;;7.00;99.90;;;;;;5067027;28;20093;-77
2022/09/22 05:36:53;;;;;;;6.95;5.68;;;7.00;99.90;;;;;;5059685;28;20127;-76
2022/09/22 05:39:22;;;;;;;8.98;6.13;;;7.00;99.90;;;;;;5055023;28;20051;-76
2022/09/22 05:41:49;;;;;;;7.32;5.88;;;7.00;99.90;;;;;;5054155;28;20059;-76
2022/09/22 05:44:15;;;;;;;7.50;6.15;;;7.00;99.90;;;;;;5048061;28;20041;-75
2022/09/22 05:46:42;;;;;;;9.27;6.32;;;7.00;99.90;;;;;;5055176;28;20126;-77
2022/09/22 05:49:11;;;;;;;8.57;6.68;;;7.10;99.90;;;;;;5052111;28;20035;-76
2022/09/22 05:51:38;;;;;;;8.80;7.03;;;7.10;99.90;;;;;;5052839;28;20054;-77
2022/09/22 05:54:08;;;;;;;8.48;7.25;;;7.10;99.90;;;;;;5055932;28;20041;-77
2022/09/22 05:56:34;;;;;;;9.63;7.40;;;7.10;99.90;;;;;;5062943;28;20101;-76
2022/09/22 05:59:00;;;;;;;10.90;7.85;;;7.20;99.90;;;;;;5064877;28;20445;-76
2022/09/22 06:01:29;;;;;;;9.65;7.13;;;7.20;99.90;;;;;;5057512;28;20040;-76
2022/09/22 06:04:13;;;;;;;10.88;6.43;;;7.30;99.90;;;;;;5058202;28;20533;-75
2022/09/22 06:06:40;;;;;;;6.93;6.22;;;7.30;99.90;;;;;;5052966;28;20102;-76
2022/09/22 06:09:06;;;;;;;9.35;6.40;;;7.40;99.90;;;;;;5059287;28;20045;-76
2022/09/22 06:11:32;;;;;;;9.02;6.72;;;7.50;99.90;;;;;;5063448;28;20042;-76
2022/09/22 06:14:08;;;;;;;8.43;7.00;;;7.50;99.90;;;;;;5054436;28;20039;-77
2022/09/22 06:16:34;;;;;;;8.77;7.88;;;7.60;99.90;;;;;;5051834;28;20551;-77
2022/09/22 06:19:01;;;;;;;11.00;8.85;;;7.70;99.90;;;;;;5066828;28;20058;-75
2022/09/22 06:21:27;;;;;;;11.85;9.70;;;7.70;99.90;;;;;;5064996;28;20052;-76
2022/09/22 06:23:56;;;;;;;11.88;9.32;;;7.80;99.90;;;;;;5067940;28;20110;-75
2022/09/22 06:26:22;;;;;;;12.57;10.70;;;7.90;99.90;;;;;;5050995;28;20045;-74
2022/09/22 06:28:49;;;;;;;13.13;10.75;;;7.90;99.90;;;;;;5063276;28;20050;-75
2022/09/22 06:31:14;;;;;;;14.00;11.15;;;8.00;99.90;;;;;;5074961;28;20440;-76
2022/09/22 06:33:47;;;;;;;13.95;10.98;;;8.10;99.90;;;;;;5047495;28;20032;-78
2022/09/22 06:36:29;;;;;;;14.05;11.23;;;8.10;99.90;;;;;;5055713;28;20124;-79
2022/09/22 06:38:57;;;;;;;14.68;10.70;;;8.30;99.90;;;;;;5043185;28;20398;-73
2022/09/22 06:41:27;;;;;;;12.45;10.80;;;8.30;99.90;;;;;;5050157;28;20559;-76
2022/09/22 06:43:54;;;;;;;12.43;10.88;;;8.40;99.90;;;;;;5058950;28;20059;-79
2022/09/22 06:46:25;;;;;;;13.82;11.35;;;8.50;99.90;;;;;;5060948;28;20060;-78
2022/09/22 06:48:56;;;;;;;15.00;12.45;;;8.60;99.90;;;;;;5065541;28;20044;-81
2022/09/22 06:51:34;;;;;;;16.05;11.75;;;8.70;99.90;;;;;;5065904;28;20142;-78
2022/09/22 06:54:04;;;;;;;15.35;12.55;;;8.70;99.90;;;;;;5052764;28;20741;-80
2022/09/22 06:56:41;;;;;;;14.52;12.60;;;8.80;99.90;;;;;;5052321;28;20064;-81
2022/09/22 06:59:11;;;;;;;13.75;11.93;;;8.90;99.90;;;;;;5068487;28;20626;-79
2022/09/22 07:01:40;;;;;;;16.27;12.52;;;9.00;99.90;;;;;;5057560;28;20130;-79
2022/09/22 07:04:07;;;;;;;16.67;13.55;;;9.00;99.90;;;;;;5059054;28;20089;-81
2022/09/22 07:06:34;;;;;;;19.00;12.90;;;9.10;99.90;;;;;;5065678;28;20049;-77
2022/09/22 07:09:00;;;;;;;14.88;12.65;;;9.20;99.90;;;;;;5060300;28;20487;-78
2022/09/22 07:11:25;;;;;;;15.73;13.23;;;9.30;99.90;;;;;;5052626;28;20095;-78
2022/09/22 07:13:53;;;;;;;17.25;13.38;;;9.40;99.90;;;;;;5053069;28;20106;-77
2022/09/22 07:16:20;;;;;;;;;;;9.40;99.90;;;;;;5059550;28;20182;-75
2022/09/22 07:18:48;;;;;;;13.85;12.48;;;9.50;99.90;;;;;;5067010;28;20011;-75
2022/09/22 07:21:21;;;;;;;17.38;13.23;;;9.60;99.90;;;;;;5061110;28;20056;-75
2022/09/22 07:23:48;;;;;;;17.10;13.40;;;9.70;99.90;;;;;;5066528;28;20067;-75
2022/09/22 07:26:17;;;;;;;14.43;12.63;;;9.70;99.90;;;;;;5065953;28;20391;-74
2022/09/22 07:28:45;;;;;;;16.55;13.32;;;9.80;99.90;;;;;;5056731;28;20750;-75
